createdAt,value
2023-04-19T00:00:53.843Z,792.00
2023-04-19T00:01:53.946Z,788.00
2023-04-19T00:02:54.005Z,788.00
2023-04-19T00:03:53.902Z,798.00
2023-04-19T00:04:53.920Z,788.00
2023-04-19T00:05:53.819Z,794.00
2023-04-19T00:06:53.803Z,784.00
2023-04-19T00:07:53.799Z,786.00
2023-04-19T00:08:53.803Z,788.00
2023-04-19T00:09:53.780Z,787.00
2023-04-19T00:10:53.769Z,782.00
2023-04-19T00:11:53.789Z,786.00
2023-04-19T00:12:53.766Z,782.00
2023-04-19T00:13:53.770Z,786.00
2023-04-19T00:14:53.771Z,786.00
2023-04-19T00:15:53.772Z,780.00
2023-04-19T00:16:53.868Z,786.00
2023-04-19T00:17:53.823Z,779.00
2023-04-19T00:18:53.793Z,782.00
2023-04-19T00:19:53.821Z,791.00
2023-04-19T00:20:53.856Z,778.00
2023-04-19T00:21:53.877Z,783.00
2023-04-19T00:22:53.892Z,779.00
2023-04-19T00:23:53.898Z,779.00
2023-04-19T00:24:53.903Z,784.00
2023-04-19T00:25:53.897Z,777.00
2023-04-19T00:26:53.902Z,777.00
2023-04-19T00:27:53.895Z,782.00
2023-04-19T00:28:53.902Z,778.00
2023-04-19T00:29:53.897Z,781.00
2023-04-19T00:30:53.972Z,784.00
2023-04-19T00:31:53.897Z,775.00
2023-04-19T00:32:53.896Z,779.00
2023-04-19T00:33:53.885Z,774.00
2023-04-19T00:34:53.895Z,775.00
2023-04-19T00:35:53.881Z,776.00
2023-04-19T00:36:53.879Z,770.00
2023-04-19T00:37:53.894Z,773.00
2023-04-19T00:38:53.883Z,770.00
2023-04-19T00:39:53.896Z,769.00
2023-04-19T00:40:53.872Z,772.00
2023-04-19T00:41:53.885Z,767.00
2023-04-19T00:42:53.874Z,766.00
2023-04-19T00:43:53.882Z,772.00
2023-04-19T00:44:53.874Z,763.00
2023-04-19T00:45:53.875Z,765.00
2023-04-19T00:46:53.857Z,771.00
2023-04-19T00:47:53.905Z,762.00
2023-04-19T00:48:53.839Z,769.00
2023-04-19T00:49:53.851Z,766.00
2023-04-19T00:50:53.844Z,763.00
2023-04-19T00:51:53.830Z,765.00
2023-04-19T00:52:53.828Z,765.00
2023-04-19T00:53:53.811Z,759.00
2023-04-19T00:54:53.805Z,756.00
2023-04-19T00:55:53.795Z,759.00
2023-04-19T00:56:53.784Z,764.00
2023-04-19T00:57:53.783Z,760.00
2023-04-19T00:58:53.798Z,757.00
2023-04-19T00:59:53.786Z,759.00
2023-04-19T01:00:53.776Z,752.00
2023-04-19T01:01:53.797Z,756.00
2023-04-19T01:02:53.965Z,758.00
2023-04-19T01:03:53.823Z,753.00
2023-04-19T01:04:53.762Z,752.00
2023-04-19T01:05:53.743Z,763.00
2023-04-19T01:06:53.732Z,754.00
2023-04-19T01:07:53.732Z,752.00
2023-04-19T01:08:53.744Z,749.00
2023-04-19T01:09:53.724Z,752.00
2023-04-19T01:10:53.717Z,755.00
2023-04-19T01:11:53.714Z,753.00
2023-04-19T01:12:53.715Z,756.00
2023-04-19T01:13:53.708Z,754.00
2023-04-19T01:14:53.703Z,751.00
2023-04-19T01:15:53.751Z,751.00
2023-04-19T01:16:53.690Z,743.00
2023-04-19T01:17:53.719Z,751.00
2023-04-19T01:18:53.684Z,746.00
2023-04-19T01:19:53.694Z,754.00
2023-04-19T01:20:53.683Z,748.00
2023-04-19T01:21:53.686Z,755.00
2023-04-19T01:22:53.678Z,749.00
2023-04-19T01:23:53.679Z,750.00
2023-04-19T01:24:53.669Z,751.00
2023-04-19T01:25:53.656Z,749.00
2023-04-19T01:26:53.646Z,744.00
2023-04-19T01:27:53.655Z,746.00
2023-04-19T01:28:53.679Z,740.00
2023-04-19T01:29:53.649Z,739.00
2023-04-19T01:30:53.670Z,740.00
2023-04-19T01:31:54.016Z,742.00
2023-04-19T01:32:53.702Z,750.00
2023-04-19T01:33:53.641Z,742.00
2023-04-19T01:34:53.640Z,744.00
2023-04-19T01:35:53.626Z,742.00
2023-04-19T01:36:53.642Z,740.00
2023-04-19T01:37:53.621Z,734.00
2023-04-19T01:38:53.611Z,735.00
2023-04-19T01:39:53.612Z,737.00
2023-04-19T01:40:53.615Z,735.00
2023-04-19T01:41:53.600Z,734.00
2023-04-19T01:42:53.607Z,737.00
2023-04-19T01:43:53.583Z,736.00
2023-04-19T01:44:53.593Z,737.00
2023-04-19T01:45:53.598Z,738.00
2023-04-19T01:46:53.676Z,735.00
2023-04-19T01:47:53.611Z,730.00
2023-04-19T01:48:53.585Z,719.00
2023-04-19T01:49:53.588Z,729.00
2023-04-19T01:50:53.590Z,725.00
2023-04-19T01:51:53.558Z,729.00
2023-04-19T01:52:53.560Z,732.00
2023-04-19T01:53:53.555Z,730.00
2023-04-19T01:54:53.538Z,727.00
2023-04-19T01:55:53.533Z,719.00
2023-04-19T01:56:53.542Z,722.00
2023-04-19T01:57:54.627Z,731.00
2023-04-19T01:58:53.570Z,723.00
2023-04-19T01:59:53.570Z,717.00
2023-04-19T02:00:53.621Z,722.00
2023-04-19T02:01:53.619Z,716.00
2023-04-19T02:02:53.705Z,722.00
2023-04-19T02:03:53.776Z,720.00
2023-04-19T02:04:53.564Z,724.00
2023-04-19T02:05:53.561Z,721.00
2023-04-19T02:06:53.557Z,720.00
2023-04-19T02:07:53.554Z,724.00
2023-04-19T02:08:53.552Z,715.00
2023-04-19T02:09:53.532Z,716.00
2023-04-19T02:10:53.545Z,711.00
2023-04-19T02:11:53.548Z,712.00
2023-04-19T02:12:53.544Z,718.00
2023-04-19T02:13:53.550Z,718.00
2023-04-19T02:14:53.535Z,718.00
2023-04-19T02:15:53.547Z,715.00
2023-04-19T02:16:53.576Z,713.00
2023-04-19T02:17:53.588Z,713.00
2023-04-19T02:18:53.554Z,705.00
2023-04-19T02:19:53.523Z,712.00
2023-04-19T02:20:53.503Z,713.00
2023-04-19T02:21:53.522Z,713.00
2023-04-19T02:22:53.490Z,716.00
2023-04-19T02:23:53.490Z,706.00
2023-04-19T02:24:53.480Z,704.00
2023-04-19T02:25:53.511Z,718.00
2023-04-19T02:26:53.467Z,706.00
2023-04-19T02:27:53.473Z,714.00
2023-04-19T02:28:53.482Z,706.00
2023-04-19T02:29:53.499Z,712.00
2023-04-19T02:30:53.459Z,708.00
2023-04-19T02:31:53.478Z,706.00
2023-04-19T02:32:53.464Z,706.00
2023-04-19T02:33:53.477Z,707.00
2023-04-19T02:34:53.438Z,709.00
2023-04-19T02:35:53.487Z,706.00
2023-04-19T02:36:53.421Z,700.00
2023-04-19T02:37:53.427Z,711.00
2023-04-19T02:38:53.434Z,696.00
2023-04-19T02:39:53.418Z,707.00
2023-04-19T02:40:53.414Z,704.00
2023-04-19T02:41:53.395Z,707.00
2023-04-19T02:42:53.402Z,696.00
2023-04-19T02:43:53.393Z,698.00
2023-04-19T02:44:53.398Z,695.00
2023-04-19T02:45:53.473Z,696.00
2023-04-19T02:46:53.373Z,693.00
2023-04-19T02:47:53.421Z,694.00
2023-04-19T02:48:53.379Z,694.00
2023-04-19T02:49:53.374Z,693.00
2023-04-19T02:50:53.374Z,689.00
2023-04-19T02:51:53.361Z,691.00
2023-04-19T02:52:53.358Z,696.00
2023-04-19T02:53:53.369Z,690.00
2023-04-19T02:54:53.362Z,690.00
2023-04-19T02:55:53.352Z,697.00
2023-04-19T02:56:53.353Z,688.00
2023-04-19T02:57:53.351Z,691.00
2023-04-19T02:58:53.364Z,701.00
2023-04-19T02:59:53.349Z,692.00
2023-04-19T03:00:53.371Z,687.00
2023-04-19T03:01:53.346Z,696.00
2023-04-19T03:02:53.439Z,693.00
2023-04-19T03:03:53.424Z,693.00
2023-04-19T03:04:53.344Z,686.00
2023-04-19T03:05:53.351Z,692.00
2023-04-19T03:06:53.371Z,692.00
2023-04-19T03:07:53.365Z,686.00
2023-04-19T03:08:53.364Z,690.00
2023-04-19T03:09:53.405Z,696.00
2023-04-19T03:10:53.420Z,694.00
2023-04-19T03:11:53.454Z,690.00
2023-04-19T03:12:53.477Z,684.00
2023-04-19T03:13:53.489Z,685.00
2023-04-19T03:14:53.507Z,691.00
2023-04-19T03:15:53.559Z,684.00
2023-04-19T03:16:53.559Z,682.00
2023-04-19T03:17:53.597Z,688.00
2023-04-19T03:18:53.544Z,682.00
2023-04-19T03:19:53.562Z,689.00
2023-04-19T03:20:53.582Z,683.00
2023-04-19T03:21:53.603Z,676.00
2023-04-19T03:22:53.621Z,682.00
2023-04-19T03:23:53.640Z,686.00
2023-04-19T03:24:53.680Z,684.00
2023-04-19T03:25:53.729Z,688.00
2023-04-19T03:26:53.771Z,682.00
2023-04-19T03:27:53.816Z,686.00
2023-04-19T03:28:53.861Z,681.00
2023-04-19T03:29:53.872Z,678.00
2023-04-19T03:30:53.912Z,681.00
2023-04-19T03:31:53.963Z,677.00
2023-04-19T03:32:54.033Z,680.00
2023-04-19T03:33:54.068Z,681.00
2023-04-19T03:34:54.119Z,681.00
2023-04-19T03:35:54.163Z,677.00
2023-04-19T03:36:54.206Z,677.00
2023-04-19T03:37:54.277Z,681.00
2023-04-19T03:38:54.326Z,671.00
2023-04-19T03:39:54.375Z,675.00
2023-04-19T03:40:54.450Z,678.00
2023-04-19T03:41:54.488Z,678.00
2023-04-19T03:42:54.548Z,676.00
2023-04-19T03:43:54.610Z,674.00
2023-04-19T03:44:54.658Z,678.00
2023-04-19T03:45:54.757Z,676.00
2023-04-19T03:46:54.766Z,675.00
2023-04-19T03:47:54.868Z,674.00
2023-04-19T03:48:54.883Z,675.00
2023-04-19T03:49:54.938Z,677.00
2023-04-19T03:50:54.978Z,679.00
2023-04-19T03:51:55.025Z,672.00
2023-04-19T03:52:55.074Z,674.00
2023-04-19T03:53:55.134Z,672.00
2023-04-19T03:54:55.189Z,677.00
2023-04-19T03:55:55.247Z,678.00
2023-04-19T03:56:55.295Z,680.00
2023-04-19T03:57:55.354Z,667.00
2023-04-19T03:58:55.409Z,667.00
2023-04-19T03:59:55.464Z,672.00
2023-04-19T04:00:55.506Z,669.00
2023-04-19T04:01:56.065Z,669.00
2023-04-19T04:02:55.816Z,667.00
2023-04-19T04:03:55.835Z,668.00
2023-04-19T04:04:55.768Z,668.00
2023-04-19T04:05:55.785Z,670.00
2023-04-19T04:06:55.904Z,668.00
2023-04-19T04:07:55.877Z,669.00
2023-04-19T04:08:55.934Z,666.00
2023-04-19T04:09:55.979Z,666.00
2023-04-19T04:10:56.018Z,661.00
2023-04-19T04:11:56.058Z,665.00
2023-04-19T04:12:56.129Z,669.00
2023-04-19T04:13:56.169Z,667.00
2023-04-19T04:14:56.216Z,665.00
2023-04-19T04:15:56.280Z,668.00
2023-04-19T04:16:56.345Z,665.00
2023-04-19T04:17:56.424Z,664.00
2023-04-19T04:18:56.391Z,664.00
2023-04-19T04:19:56.447Z,669.00
2023-04-19T04:20:56.477Z,662.00
2023-04-19T04:21:56.533Z,665.00
2023-04-19T04:22:56.594Z,663.00
2023-04-19T04:23:56.651Z,662.00
2023-04-19T04:24:56.706Z,665.00
2023-04-19T04:25:56.759Z,666.00
2023-04-19T04:26:56.805Z,664.00
2023-04-19T04:27:56.878Z,663.00
2023-04-19T04:28:56.911Z,662.00
2023-04-19T04:29:56.964Z,663.00
2023-04-19T04:30:57.033Z,664.00
2023-04-19T04:31:57.143Z,662.00
2023-04-19T04:32:57.151Z,663.00
2023-04-19T04:33:57.192Z,664.00
2023-04-19T04:34:57.242Z,663.00
2023-04-19T04:35:57.297Z,664.00
2023-04-19T04:36:57.343Z,661.00
2023-04-19T04:37:57.402Z,663.00
2023-04-19T04:38:57.452Z,660.00
2023-04-19T04:39:57.494Z,663.00
2023-04-19T04:40:57.562Z,665.00
2023-04-19T04:41:57.610Z,662.00
2023-04-19T04:42:57.654Z,662.00
2023-04-19T04:44:11.484Z,663.00
2023-04-19T04:44:58.686Z,663.00
2023-04-19T04:45:57.819Z,663.00
2023-04-19T04:46:57.649Z,663.00
2023-04-19T04:47:57.667Z,663.00
2023-04-19T04:48:57.612Z,662.00
2023-04-19T04:49:57.616Z,663.00
2023-04-19T04:50:57.586Z,660.00
2023-04-19T04:51:57.562Z,662.00
2023-04-19T04:52:57.573Z,659.00
2023-04-19T04:53:57.608Z,653.00
2023-04-19T04:54:57.667Z,658.00
2023-04-19T04:55:57.711Z,659.00
2023-04-19T04:56:57.812Z,658.00
2023-04-19T04:57:57.820Z,657.00
2023-04-19T04:58:57.859Z,656.00
2023-04-19T04:59:57.918Z,656.00
2023-04-19T05:00:57.994Z,657.00
2023-04-19T05:01:58.072Z,655.00
2023-04-19T05:02:58.146Z,657.00
2023-04-19T05:03:58.121Z,654.00
2023-04-19T05:04:58.152Z,657.00
2023-04-19T05:05:58.212Z,655.00
2023-04-19T05:06:58.239Z,654.00
2023-04-19T05:07:58.288Z,654.00
2023-04-19T05:08:58.345Z,655.00
2023-04-19T05:09:58.379Z,658.00
2023-04-19T05:10:58.426Z,656.00
2023-04-19T05:11:58.471Z,655.00
2023-04-19T05:12:58.533Z,661.00
2023-04-19T05:13:58.571Z,655.00
2023-04-19T05:14:58.624Z,652.00
2023-04-19T05:15:58.693Z,656.00
2023-04-19T05:16:58.707Z,652.00
2023-04-19T05:17:58.834Z,653.00
2023-04-19T05:18:58.818Z,650.00
2023-04-19T05:19:58.882Z,650.00
2023-04-19T05:20:58.917Z,648.00
2023-04-19T05:21:58.999Z,646.00
2023-04-19T05:22:59.025Z,643.00
2023-04-19T05:23:59.070Z,643.00
2023-04-19T05:24:59.117Z,642.00
2023-04-19T05:25:59.176Z,641.00
2023-04-19T05:26:59.197Z,642.00
2023-04-19T05:27:59.262Z,640.00
2023-04-19T05:28:59.351Z,648.00
2023-04-19T05:29:59.340Z,656.00
2023-04-19T05:30:59.414Z,675.00
2023-04-19T05:31:59.423Z,697.00
2023-04-19T05:32:59.520Z,727.00
2023-04-19T05:33:59.476Z,769.00
2023-04-19T05:34:59.475Z,817.00
2023-04-19T05:35:59.467Z,856.00
2023-04-19T05:36:59.453Z,909.00
2023-04-19T05:37:59.442Z,959.00
2023-04-19T05:38:59.418Z,1006.00
2023-04-19T05:39:59.418Z,1064.00
2023-04-19T05:40:59.432Z,1107.00
2023-04-19T05:41:59.407Z,1163.00
2023-04-19T05:42:59.412Z,1213.00
2023-04-19T05:43:59.453Z,1264.00
2023-04-19T05:44:59.494Z,1313.00
2023-04-19T05:45:59.569Z,1357.00
2023-04-19T05:46:59.563Z,1441.00
2023-04-19T05:47:59.684Z,1486.00
2023-04-19T05:48:59.645Z,1523.00
2023-04-19T05:49:59.667Z,1562.00
2023-04-19T05:50:59.712Z,1612.00
2023-04-19T05:51:59.762Z,1660.00
2023-04-19T05:53:00.524Z,1695.00
2023-04-19T05:53:59.806Z,1736.00
2023-04-19T05:54:59.842Z,1772.00
2023-04-19T05:55:59.884Z,1826.00
2023-04-19T05:56:59.892Z,1847.00
2023-04-19T05:57:59.933Z,1887.00
2023-04-19T05:58:59.960Z,1928.00
2023-04-19T06:01:00.064Z,2007.00
2023-04-19T06:02:00.146Z,2044.00
2023-04-19T06:03:00.268Z,2076.00
2023-04-19T06:04:00.364Z,2116.00
2023-04-19T06:05:02.724Z,2145.00
2023-04-19T06:06:01.077Z,2147.00
2023-04-19T06:07:00.039Z,2156.00
2023-04-19T06:08:02.769Z,2172.00
2023-04-19T06:08:59.957Z,2203.00
2023-04-19T06:10:01.481Z,2245.00
2023-04-19T06:11:04.940Z,2149.00
2023-04-19T06:12:00.878Z,2150.00
2023-04-19T06:12:59.898Z,2172.00
2023-04-19T06:13:59.817Z,2220.00
2023-04-19T06:14:59.789Z,2288.00
2023-04-19T06:15:59.866Z,2381.00
2023-04-19T06:17:00.534Z,2405.00
2023-04-19T06:18:00.724Z,2406.00
2023-04-19T06:18:59.671Z,2407.00
2023-04-19T06:19:59.662Z,2399.00
2023-04-19T06:20:59.634Z,2370.00
2023-04-19T06:21:59.603Z,2323.00
2023-04-19T06:22:59.572Z,2226.00
2023-04-19T06:23:59.560Z,2133.00
2023-04-19T06:24:59.560Z,2112.00
2023-04-19T06:25:59.514Z,2083.00
2023-04-19T06:26:59.480Z,2015.00
2023-04-19T06:27:59.457Z,2030.00
2023-04-19T06:28:59.443Z,2052.00
2023-04-19T06:29:59.403Z,2057.00
2023-04-19T06:30:59.391Z,2035.00
2023-04-19T06:31:59.459Z,2064.00
2023-04-19T06:32:59.385Z,2072.00
2023-04-19T06:33:59.312Z,2084.00
2023-04-19T06:34:59.284Z,2096.00
2023-04-19T06:35:59.273Z,2103.00
2023-04-19T06:36:59.226Z,2122.00
2023-04-19T06:37:59.194Z,2140.00
2023-04-19T06:38:59.175Z,2172.00
2023-04-19T06:39:59.151Z,2179.00
2023-04-19T06:40:59.118Z,2192.00
2023-04-19T06:41:59.084Z,2222.00
2023-04-19T06:42:59.068Z,2225.00
2023-04-19T06:43:59.099Z,2248.00
2023-04-19T06:44:59.084Z,2255.00
2023-04-19T06:45:59.156Z,2273.00
2023-04-19T06:46:59.118Z,2287.00
2023-04-19T06:47:59.134Z,2312.00
2023-04-19T06:48:59.127Z,2342.00
2023-04-19T06:49:59.115Z,2366.00
2023-04-19T06:50:59.116Z,2383.00
2023-04-19T06:51:59.150Z,2394.00
2023-04-19T06:52:59.113Z,2416.00
2023-04-19T06:53:59.208Z,2438.00
2023-04-19T06:54:59.106Z,2460.00
2023-04-19T06:55:59.116Z,2486.00
2023-04-19T06:56:59.083Z,2490.00
2023-04-19T06:57:59.073Z,2526.00
2023-04-19T06:58:59.075Z,2556.00
2023-04-19T06:59:59.084Z,2571.00
2023-04-19T07:00:59.063Z,2579.00
2023-04-19T07:01:59.113Z,2603.00
2023-04-19T07:02:59.611Z,2625.00
2023-04-19T07:03:59.209Z,2646.00
2023-04-19T07:04:59.000Z,2660.00
2023-04-19T07:05:58.982Z,2672.00
2023-04-19T07:06:58.947Z,2696.00
2023-04-19T07:07:58.940Z,2708.00
2023-04-19T07:08:58.911Z,2734.00
2023-04-19T07:09:58.882Z,2737.00
2023-04-19T07:10:58.876Z,2766.00
2023-04-19T07:11:58.844Z,2775.00
2023-04-19T07:12:58.836Z,2808.00
2023-04-19T07:13:58.801Z,2795.00
2023-04-19T07:14:58.791Z,2813.00
2023-04-19T07:15:58.807Z,2831.00
2023-04-19T07:16:58.733Z,2852.00
2023-04-19T07:17:58.780Z,2818.00
2023-04-19T07:18:59.615Z,2844.00
2023-04-19T07:19:58.694Z,2858.00
2023-04-19T07:20:58.684Z,2867.00
2023-04-19T07:21:58.682Z,2887.00
2023-04-19T07:22:58.654Z,2904.00
2023-04-19T07:23:58.615Z,2895.00
2023-04-19T07:24:58.587Z,2901.00
2023-04-19T07:25:59.552Z,2923.00
2023-04-19T07:26:58.525Z,2941.00
2023-04-19T07:27:58.493Z,2954.00
2023-04-19T07:28:58.548Z,2979.00
2023-04-19T07:29:58.439Z,2966.00
2023-04-19T07:30:58.451Z,2980.00
2023-04-19T07:31:58.419Z,3015.00
2023-04-19T07:32:58.441Z,3026.00
2023-04-19T07:33:58.320Z,3039.00
2023-04-19T07:34:58.292Z,3041.00
2023-04-19T07:35:58.247Z,3049.00
2023-04-19T07:36:59.226Z,3042.00
2023-04-19T07:37:58.176Z,3053.00
2023-04-19T07:38:58.146Z,3077.00
2023-04-19T07:39:58.098Z,3110.00
2023-04-19T07:40:58.071Z,3045.00
2023-04-19T07:41:58.025Z,3063.00
2023-04-19T07:42:57.992Z,3100.00
2023-04-19T07:43:57.964Z,3161.00
2023-04-19T07:44:57.930Z,3242.00
2023-04-19T07:45:58.103Z,3264.00
2023-04-19T07:46:57.938Z,3276.00
2023-04-19T07:47:57.941Z,3287.00
2023-04-19T07:48:57.802Z,3291.00
2023-04-19T07:49:57.761Z,3313.00
2023-04-19T07:50:57.708Z,3344.00
2023-04-19T07:51:58.559Z,3371.00
2023-04-19T07:52:57.709Z,3374.00
2023-04-19T07:53:57.711Z,3389.00
2023-04-19T07:54:57.713Z,3403.00
2023-04-19T07:55:57.865Z,3437.00
2023-04-19T07:56:57.702Z,3456.00
2023-04-19T07:57:57.726Z,3466.00
2023-04-19T07:59:07.430Z,3486.00
2023-04-19T07:59:58.661Z,3487.00
2023-04-19T08:00:57.654Z,3493.00
2023-04-19T08:01:57.678Z,3507.00
2023-04-19T08:02:57.798Z,3520.00
2023-04-19T08:03:57.663Z,3554.00
2023-04-19T08:04:57.546Z,3489.00
2023-04-19T08:05:57.461Z,3491.00
2023-04-19T08:06:59.116Z,3215.00
2023-04-19T08:07:57.395Z,2937.00
2023-04-19T08:08:59.072Z,2747.00
2023-04-19T08:09:57.442Z,2661.00
2023-04-19T08:10:57.307Z,2607.00
2023-04-19T08:11:57.364Z,2528.00
2023-04-19T08:13:05.663Z,2386.00
2023-04-19T08:14:06.976Z,2067.00
2023-04-19T08:15:05.233Z,1797.00
2023-04-19T08:17:22.400Z,1304.00
2023-04-19T08:17:58.187Z,1003.00
2023-04-19T08:18:57.140Z,749.00
2023-04-19T08:19:57.070Z,639.00
2023-04-19T08:20:57.043Z,566.00
2023-04-19T08:21:57.011Z,456.00
2023-04-19T08:23:00.515Z,433.00
2023-04-19T08:23:58.021Z,400.00
2023-04-19T08:24:56.962Z,400.00
2023-04-19T08:25:56.951Z,400.00
2023-04-19T08:26:58.809Z,400.00
2023-04-19T08:27:56.924Z,400.00
2023-04-19T08:28:56.903Z,400.00
2023-04-19T08:29:56.918Z,409.00
2023-04-19T08:30:56.870Z,485.00
2023-04-19T08:31:56.879Z,506.00
2023-04-19T08:32:57.300Z,528.00
2023-04-19T08:33:56.800Z,538.00
2023-04-19T08:34:56.782Z,558.00
2023-04-19T08:35:56.755Z,579.00
2023-04-19T08:37:03.839Z,598.00
2023-04-19T08:37:57.702Z,599.00
2023-04-19T08:39:05.440Z,604.00
2023-04-19T08:39:57.635Z,600.00
2023-04-19T08:40:56.615Z,609.00
2023-04-19T08:42:06.886Z,625.00
2023-04-19T08:42:57.548Z,602.00
2023-04-19T08:43:56.541Z,613.00
2023-04-19T08:45:13.788Z,637.00
2023-04-19T08:45:57.499Z,602.00
2023-04-19T08:46:56.440Z,618.00
2023-04-19T08:48:01.472Z,649.00
2023-04-19T08:48:57.403Z,604.00
2023-04-19T08:50:08.592Z,625.00
2023-04-19T08:51:04.962Z,605.00
2023-04-19T08:51:57.281Z,605.00
2023-04-19T08:53:02.748Z,634.00
2023-04-19T08:53:57.192Z,607.00
2023-04-19T08:54:56.162Z,641.00
2023-04-19T08:56:10.772Z,749.00
2023-04-19T08:56:58.098Z,609.00
2023-04-19T08:57:56.069Z,647.00
2023-04-19T08:59:07.676Z,790.00
2023-04-19T08:59:57.764Z,610.00
2023-04-19T09:00:56.049Z,653.00
2023-04-19T09:01:56.033Z,819.00
2023-04-19T09:02:56.110Z,1107.00
2023-04-19T09:04:01.128Z,1473.00
2023-04-19T09:04:57.033Z,612.00
2023-04-19T09:05:56.010Z,662.00
2023-04-19T09:06:55.853Z,885.00
2023-04-19T09:07:55.725Z,1216.00
2023-04-19T09:08:55.696Z,1659.00
2023-04-19T09:10:02.944Z,1722.00
2023-04-19T09:10:56.638Z,1724.00
2023-04-19T09:11:55.598Z,1731.00
2023-04-19T09:12:55.620Z,1745.00
2023-04-19T09:13:55.527Z,1778.00
2023-04-19T09:15:01.842Z,1830.00
2023-04-19T09:15:56.668Z,1726.00
2023-04-19T09:16:55.739Z,1740.00
2023-04-19T09:17:55.474Z,1769.00
2023-04-19T09:19:02.362Z,1816.00
2023-04-19T09:19:56.337Z,1729.00
2023-04-19T09:20:55.311Z,1748.00
2023-04-19T09:21:55.458Z,1784.00
2023-04-19T09:22:55.244Z,1848.00
2023-04-19T09:23:55.202Z,1915.00
2023-04-19T09:25:22.538Z,1920.00
2023-04-19T09:26:55.112Z,1922.00
2023-04-19T09:27:55.083Z,1929.00
2023-04-19T09:28:55.052Z,1939.00
2023-04-19T09:29:55.021Z,1950.00
2023-04-19T09:31:05.706Z,1973.00
2023-04-19T09:31:56.033Z,1923.00
2023-04-19T09:32:54.987Z,1932.00
2023-04-19T09:33:54.899Z,1939.00
2023-04-19T09:34:54.872Z,1947.00
2023-04-19T09:35:54.836Z,1971.00
2023-04-19T09:37:08.564Z,1970.00
2023-04-19T09:38:04.876Z,1971.00
2023-04-19T09:38:55.728Z,1973.00
2023-04-19T09:39:54.704Z,1977.00
2023-04-19T09:40:54.668Z,1979.00
2023-04-19T09:41:54.646Z,1967.00
2023-04-19T09:43:08.615Z,1965.00
2023-04-19T09:45:27.690Z,1972.00
2023-04-19T09:45:55.620Z,1972.00
2023-04-19T09:46:54.515Z,1973.00
2023-04-19T09:47:54.518Z,1972.00
2023-04-19T09:48:54.414Z,1952.00
2023-04-19T09:49:54.818Z,1952.00
2023-04-19T09:51:00.215Z,1932.00
2023-04-19T09:51:55.321Z,1933.00
2023-04-19T09:52:54.312Z,1935.00
2023-04-19T09:53:54.264Z,1936.00
2023-04-19T09:54:54.226Z,1921.00
2023-04-19T09:56:01.609Z,1924.00
2023-04-19T09:56:57.909Z,1933.00
2023-04-19T09:57:54.120Z,1933.00
2023-04-19T09:58:58.831Z,1934.00
2023-04-19T09:59:55.063Z,1933.00
2023-04-19T10:01:02.867Z,1925.00
2023-04-19T10:01:55.052Z,1933.00
2023-04-19T10:02:54.006Z,1931.00
2023-04-19T10:03:54.334Z,1922.00
2023-04-19T10:05:11.244Z,1909.00
2023-04-19T10:05:54.878Z,1924.00
2023-04-19T10:07:19.477Z,1912.00
2023-04-19T10:07:58.538Z,1924.00
2023-04-19T10:08:54.760Z,1933.00
2023-04-19T10:09:56.453Z,1933.00
2023-04-19T10:10:53.694Z,1933.00
2023-04-19T10:11:58.144Z,1901.00
2023-04-19T10:13:53.603Z,1925.00
2023-04-19T10:14:53.568Z,1902.00
2023-04-19T10:15:57.331Z,1886.00
2023-04-19T10:16:54.539Z,1916.00
2023-04-19T10:17:53.552Z,1895.00
2023-04-19T10:18:53.445Z,1868.00
2023-04-19T10:19:53.427Z,1867.00
2023-04-19T10:20:53.401Z,1851.00
2023-04-19T10:21:53.367Z,1847.00
2023-04-19T10:22:53.344Z,1849.00
2023-04-19T10:23:53.706Z,1842.00
2023-04-19T10:24:53.279Z,1828.00
2023-04-19T10:25:53.240Z,1833.00
2023-04-19T10:26:53.250Z,1819.00
2023-04-19T10:27:53.318Z,1832.00
2023-04-19T10:28:53.338Z,1835.00
2023-04-19T10:29:53.359Z,1822.00
2023-04-19T10:30:54.131Z,1825.00
2023-04-19T10:31:53.524Z,1815.00
2023-04-19T10:32:53.553Z,1799.00
2023-04-19T10:33:53.524Z,1817.00
2023-04-19T10:34:53.549Z,1817.00
2023-04-19T10:35:53.641Z,1805.00
2023-04-19T10:36:53.644Z,1803.00
2023-04-19T10:37:53.680Z,1797.00
2023-04-19T10:38:53.757Z,1791.00
2023-04-19T10:39:53.765Z,1787.00
2023-04-19T10:40:53.810Z,1779.00
2023-04-19T10:41:53.855Z,1781.00
2023-04-19T10:42:53.894Z,1768.00
2023-04-19T10:43:53.924Z,1755.00
2023-04-19T10:44:53.959Z,1756.00
2023-04-19T10:45:54.026Z,1749.00
2023-04-19T10:46:54.052Z,1753.00
2023-04-19T10:47:54.128Z,1720.00
2023-04-19T10:48:54.114Z,1708.00
2023-04-19T10:49:54.157Z,1723.00
2023-04-19T10:50:54.203Z,1711.00
2023-04-19T10:51:54.246Z,1712.00
2023-04-19T10:52:54.278Z,1698.00
2023-04-19T10:53:54.314Z,1678.00
2023-04-19T10:54:54.331Z,1681.00
2023-04-19T10:55:54.358Z,1671.00
2023-04-19T10:56:54.412Z,1676.00
2023-04-19T10:57:54.418Z,1666.00
2023-04-19T10:58:54.439Z,1679.00
2023-04-19T10:59:54.477Z,1662.00
2023-04-19T11:00:54.526Z,1664.00
2023-04-19T11:01:54.657Z,1660.00
2023-04-19T11:02:54.705Z,1658.00
2023-04-19T11:03:54.831Z,1637.00
2023-04-19T11:04:54.607Z,1643.00
2023-04-19T11:05:54.634Z,1638.00
2023-04-19T11:06:54.666Z,1621.00
2023-04-19T11:07:54.694Z,1630.00
2023-04-19T11:08:54.714Z,1629.00
2023-04-19T11:09:54.736Z,1627.00
2023-04-19T11:10:54.765Z,1636.00
2023-04-19T11:11:54.776Z,1619.00
2023-04-19T11:12:54.829Z,1622.00
2023-04-19T11:13:54.843Z,1624.00
2023-04-19T11:14:54.868Z,1604.00
2023-04-19T11:15:54.920Z,1625.00
2023-04-19T11:16:55.026Z,1609.00
2023-04-19T11:18:08.885Z,1618.00
2023-04-19T11:18:55.926Z,1619.00
2023-04-19T11:19:55.684Z,1619.00
2023-04-19T11:20:54.884Z,1620.00
2023-04-19T11:21:54.870Z,1620.00
2023-04-19T11:22:54.872Z,1627.00
2023-04-19T11:23:54.848Z,1614.00
2023-04-19T11:24:54.821Z,1604.00
2023-04-19T11:25:54.801Z,1609.00
2023-04-19T11:26:55.687Z,1597.00
2023-04-19T11:27:54.798Z,1596.00
2023-04-19T11:28:54.829Z,1606.00
2023-04-19T11:29:54.879Z,1593.00
2023-04-19T11:30:54.936Z,1593.00
2023-04-19T11:31:54.912Z,1590.00
2023-04-19T11:32:54.987Z,1594.00
2023-04-19T11:33:54.960Z,1583.00
2023-04-19T11:34:54.998Z,1581.00
2023-04-19T11:35:55.029Z,1572.00
2023-04-19T11:36:55.072Z,1582.00
2023-04-19T11:37:55.128Z,1584.00
2023-04-19T11:38:55.129Z,1555.00
2023-04-19T11:39:55.199Z,1573.00
2023-04-19T11:40:55.211Z,1576.00
2023-04-19T11:41:55.245Z,1562.00
2023-04-19T11:42:55.287Z,1548.00
2023-04-19T11:43:55.305Z,1564.00
2023-04-19T11:44:55.381Z,1552.00
2023-04-19T11:45:55.394Z,1560.00
2023-04-19T11:46:55.492Z,1539.00
2023-04-19T11:47:55.495Z,1552.00
2023-04-19T11:48:55.535Z,1524.00
2023-04-19T11:49:55.559Z,1539.00
2023-04-19T11:50:55.568Z,1534.00
2023-04-19T11:51:55.636Z,1522.00
2023-04-19T11:52:55.668Z,1526.00
2023-04-19T11:53:55.744Z,1505.00
2023-04-19T11:54:55.692Z,1515.00
2023-04-19T11:55:55.788Z,1509.00
2023-04-19T11:56:55.762Z,1520.00
2023-04-19T11:57:55.779Z,1508.00
2023-04-19T11:58:55.812Z,1515.00
2023-04-19T11:59:55.828Z,1487.00
2023-04-19T12:00:56.021Z,1491.00
2023-04-19T12:01:55.921Z,1496.00
2023-04-19T12:02:56.284Z,1490.00
2023-04-19T12:03:56.148Z,1489.00
2023-04-19T12:04:56.117Z,1485.00
2023-04-19T12:05:56.195Z,1476.00
2023-04-19T12:06:56.085Z,1481.00
2023-04-19T12:07:56.112Z,1486.00
2023-04-19T12:08:56.199Z,1473.00
2023-04-19T12:09:56.182Z,1466.00
2023-04-19T12:10:56.212Z,1480.00
2023-04-19T12:11:56.306Z,1465.00
2023-04-19T12:12:56.302Z,1464.00
2023-04-19T12:13:56.332Z,1472.00
2023-04-19T12:14:56.351Z,1481.00
2023-04-19T12:15:56.379Z,1456.00
2023-04-19T12:16:56.418Z,1466.00
2023-04-19T12:17:57.447Z,1453.00
2023-04-19T12:18:56.444Z,1446.00
2023-04-19T12:19:56.468Z,1440.00
2023-04-19T12:20:57.201Z,1443.00
2023-04-19T12:21:56.513Z,1447.00
2023-04-19T12:22:56.519Z,1436.00